sensor_id;sensor_type;location;lat;lon;timestamp;P1;durP1;ratioP1;P2;durP2;ratioP2
83423;SDS011;73355;49.044;8.686;2023-12-28T00:00:42;6.97;;;3.67;;
83423;SDS011;73355;49.044;8.686;2023-12-28T00:03:07;8.93;;;4.00;;
83423;SDS011;73355;49.044;8.686;2023-12-28T00:05:32;8.57;;;3.72;;
83423;SDS011;73355;49.044;8.686;2023-12-28T00:07:58;10.48;;;3.90;;
83423;SDS011;73355;49.044;8.686;2023-12-28T00:10:24;9.52;;;3.88;;
83423;SDS011;73355;49.044;8.686;2023-12-28T00:12:50;7.43;;;3.80;;
83423;SDS011;73355;49.044;8.686;2023-12-28T00:15:18;6.53;;;3.95;;
83423;SDS011;73355;49.044;8.686;2023-12-28T00:17:44;9.25;;;4.00;;
83423;SDS011;73355;49.044;8.686;2023-12-28T00:20:09;8.40;;;4.27;;
83423;SDS011;73355;49.044;8.686;2023-12-28T00:22:35;7.03;;;3.53;;
83423;SDS011;73355;49.044;8.686;2023-12-28T00:25:02;6.38;;;3.53;;
83423;SDS011;73355;49.044;8.686;2023-12-28T00:29:54;8.00;;;3.60;;
83423;SDS011;73355;49.044;8.686;2023-12-28T00:32:19;7.13;;;3.60;;
83423;SDS011;73355;49.044;8.686;2023-12-28T00:34:44;7.60;;;3.97;;
83423;SDS011;73355;49.044;8.686;2023-12-28T00:37:09;5.77;;;3.40;;
83423;SDS011;73355;49.044;8.686;2023-12-28T00:39:35;6.33;;;3.40;;
83423;SDS011;73355;49.044;8.686;2023-12-28T00:42:00;8.07;;;3.75;;
83423;SDS011;73355;49.044;8.686;2023-12-28T00:44:25;9.65;;;4.30;;
83423;SDS011;73355;49.044;8.686;2023-12-28T00:46:51;9.17;;;4.23;;
83423;SDS011;73355;49.044;8.686;2023-12-28T00:49:16;8.23;;;4.00;;
83423;SDS011;73355;49.044;8.686;2023-12-28T00:51:41;8.40;;;4.30;;
83423;SDS011;73355;49.044;8.686;2023-12-28T00:54:07;7.03;;;3.90;;
83423;SDS011;73355;49.044;8.686;2023-12-28T00:56:32;7.78;;;4.07;;
83423;SDS011;73355;49.044;8.686;2023-12-28T00:58:57;8.50;;;4.33;;
83423;SDS011;73355;49.044;8.686;2023-12-28T01:01:23;9.88;;;4.82;;
83423;SDS011;73355;49.044;8.686;2023-12-28T01:03:48;9.70;;;4.55;;
83423;SDS011;73355;49.044;8.686;2023-12-28T01:06:13;7.80;;;4.03;;
83423;SDS011;73355;49.044;8.686;2023-12-28T01:08:39;8.73;;;4.68;;
83423;SDS011;73355;49.044;8.686;2023-12-28T01:11:04;8.43;;;3.87;;
83423;SDS011;73355;49.044;8.686;2023-12-28T01:13:29;8.88;;;3.78;;
83423;SDS011;73355;49.044;8.686;2023-12-28T01:15:55;8.48;;;3.90;;
83423;SDS011;73355;49.044;8.686;2023-12-28T01:18:21;7.72;;;4.10;;
83423;SDS011;73355;49.044;8.686;2023-12-28T01:20:46;8.63;;;3.72;;
83423;SDS011;73355;49.044;8.686;2023-12-28T01:23:11;7.23;;;3.70;;
83423;SDS011;73355;49.044;8.686;2023-12-28T01:25:37;6.80;;;3.30;;
83423;SDS011;73355;49.044;8.686;2023-12-28T01:28:02;6.18;;;2.80;;
83423;SDS011;73355;49.044;8.686;2023-12-28T01:30:28;5.28;;;2.78;;
83423;SDS011;73355;49.044;8.686;2023-12-28T01:32:53;5.43;;;3.10;;
83423;SDS011;73355;49.044;8.686;2023-12-28T01:35:19;5.90;;;2.83;;
83423;SDS011;73355;49.044;8.686;2023-12-28T01:37:45;5.50;;;2.88;;
83423;SDS011;73355;49.044;8.686;2023-12-28T01:40:10;5.30;;;2.30;;
83423;SDS011;73355;49.044;8.686;2023-12-28T01:42:36;4.57;;;2.53;;
83423;SDS011;73355;49.044;8.686;2023-12-28T01:45:01;5.50;;;2.53;;
83423;SDS011;73355;49.044;8.686;2023-12-28T01:47:26;4.60;;;2.45;;
83423;SDS011;73355;49.044;8.686;2023-12-28T01:49:54;4.18;;;2.17;;
83423;SDS011;73355;49.044;8.686;2023-12-28T01:52:20;4.90;;;2.22;;
83423;SDS011;73355;49.044;8.686;2023-12-28T01:54:45;5.15;;;2.35;;
83423;SDS011;73355;49.044;8.686;2023-12-28T01:57:11;3.67;;;2.03;;
83423;SDS011;73355;49.044;8.686;2023-12-28T01:59:38;5.90;;;2.50;;
83423;SDS011;73355;49.044;8.686;2023-12-28T02:02:04;4.82;;;2.33;;
83423;SDS011;73355;49.044;8.686;2023-12-28T02:04:30;4.38;;;2.13;;
83423;SDS011;73355;49.044;8.686;2023-12-28T02:06:56;4.03;;;2.08;;
83423;SDS011;73355;49.044;8.686;2023-12-28T02:09:22;4.65;;;1.83;;
83423;SDS011;73355;49.044;8.686;2023-12-28T02:11:48;3.20;;;1.83;;
83423;SDS011;73355;49.044;8.686;2023-12-28T02:14:13;3.30;;;1.75;;
83423;SDS011;73355;49.044;8.686;2023-12-28T02:16:41;4.40;;;1.88;;
83423;SDS011;73355;49.044;8.686;2023-12-28T02:19:43;3.47;;;1.55;;
83423;SDS011;73355;49.044;8.686;2023-12-28T02:22:13;3.97;;;1.83;;
83423;SDS011;73355;49.044;8.686;2023-12-28T02:27:30;4.63;;;1.73;;
83423;SDS011;73355;49.044;8.686;2023-12-28T02:29:55;3.13;;;1.50;;
83423;SDS011;73355;49.044;8.686;2023-12-28T02:32:24;3.42;;;1.40;;
83423;SDS011;73355;49.044;8.686;2023-12-28T02:35:02;2.40;;;1.20;;
83423;SDS011;73355;49.044;8.686;2023-12-28T02:37:37;2.78;;;1.25;;
83423;SDS011;73355;49.044;8.686;2023-12-28T02:40:02;3.20;;;1.35;;
83423;SDS011;73355;49.044;8.686;2023-12-28T02:42:28;2.63;;;1.20;;
83423;SDS011;73355;49.044;8.686;2023-12-28T02:44:54;3.92;;;1.40;;
83423;SDS011;73355;49.044;8.686;2023-12-28T02:47:19;2.03;;;1.00;;
83423;SDS011;73355;49.044;8.686;2023-12-28T02:49:44;2.83;;;1.20;;
83423;SDS011;73355;49.044;8.686;2023-12-28T02:52:09;3.93;;;1.43;;
83423;SDS011;73355;49.044;8.686;2023-12-28T02:54:35;3.00;;;1.43;;
83423;SDS011;73355;49.044;8.686;2023-12-28T02:57:00;2.57;;;1.20;;
83423;SDS011;73355;49.044;8.686;2023-12-28T02:59:25;3.10;;;1.30;;
83423;SDS011;73355;49.044;8.686;2023-12-28T03:01:51;1.57;;;0.80;;
83423;SDS011;73355;49.044;8.686;2023-12-28T03:04:16;1.60;;;0.80;;
83423;SDS011;73355;49.044;8.686;2023-12-28T03:06:41;1.47;;;0.60;;
83423;SDS011;73355;49.044;8.686;2023-12-28T03:09:07;1.90;;;0.73;;
83423;SDS011;73355;49.044;8.686;2023-12-28T03:11:32;3.63;;;0.87;;
83423;SDS011;73355;49.044;8.686;2023-12-28T03:13:58;1.83;;;0.77;;
83423;SDS011;73355;49.044;8.686;2023-12-28T03:16:23;1.67;;;0.80;;
83423;SDS011;73355;49.044;8.686;2023-12-28T03:18:48;1.63;;;0.87;;
83423;SDS011;73355;49.044;8.686;2023-12-28T03:21:13;3.23;;;1.03;;
83423;SDS011;73355;49.044;8.686;2023-12-28T03:23:39;1.33;;;0.80;;
83423;SDS011;73355;49.044;8.686;2023-12-28T03:26:04;2.23;;;0.90;;
83423;SDS011;73355;49.044;8.686;2023-12-28T03:28:29;1.97;;;0.70;;
83423;SDS011;73355;49.044;8.686;2023-12-28T03:30:55;1.80;;;0.90;;
83423;SDS011;73355;49.044;8.686;2023-12-28T03:33:20;2.03;;;0.80;;
83423;SDS011;73355;49.044;8.686;2023-12-28T03:35:46;1.20;;;0.77;;
83423;SDS011;73355;49.044;8.686;2023-12-28T03:38:11;2.87;;;0.80;;
83423;SDS011;73355;49.044;8.686;2023-12-28T03:40:36;1.63;;;0.80;;
83423;SDS011;73355;49.044;8.686;2023-12-28T03:43:01;1.70;;;0.93;;
83423;SDS011;73355;49.044;8.686;2023-12-28T03:45:27;2.38;;;0.80;;
83423;SDS011;73355;49.044;8.686;2023-12-28T03:47:52;2.27;;;0.90;;
83423;SDS011;73355;49.044;8.686;2023-12-28T03:50:17;1.27;;;0.80;;
83423;SDS011;73355;49.044;8.686;2023-12-28T03:52:43;1.23;;;0.52;;
83423;SDS011;73355;49.044;8.686;2023-12-28T03:55:08;1.52;;;0.80;;
83423;SDS011;73355;49.044;8.686;2023-12-28T03:57:34;1.48;;;0.70;;
83423;SDS011;73355;49.044;8.686;2023-12-28T03:59:59;1.40;;;0.77;;
83423;SDS011;73355;49.044;8.686;2023-12-28T04:02:24;1.20;;;0.70;;
83423;SDS011;73355;49.044;8.686;2023-12-28T04:04:52;1.58;;;0.70;;
83423;SDS011;73355;49.044;8.686;2023-12-28T04:07:18;2.53;;;0.90;;
83423;SDS011;73355;49.044;8.686;2023-12-28T04:09:43;1.80;;;0.80;;
83423;SDS011;73355;49.044;8.686;2023-12-28T04:12:08;2.33;;;0.70;;
83423;SDS011;73355;49.044;8.686;2023-12-28T04:14:34;3.15;;;1.27;;
83423;SDS011;73355;49.044;8.686;2023-12-28T04:17:00;1.42;;;0.60;;
83423;SDS011;73355;49.044;8.686;2023-12-28T04:19:25;2.30;;;0.90;;
83423;SDS011;73355;49.044;8.686;2023-12-28T04:21:50;2.00;;;0.90;;
83423;SDS011;73355;49.044;8.686;2023-12-28T04:24:16;1.97;;;0.80;;
83423;SDS011;73355;49.044;8.686;2023-12-28T04:26:41;1.67;;;1.00;;
83423;SDS011;73355;49.044;8.686;2023-12-28T04:29:10;3.97;;;1.15;;
83423;SDS011;73355;49.044;8.686;2023-12-28T04:31:39;1.77;;;1.00;;
83423;SDS011;73355;49.044;8.686;2023-12-28T04:34:06;2.35;;;0.50;;
83423;SDS011;73355;49.044;8.686;2023-12-28T04:36:31;2.33;;;0.93;;
83423;SDS011;73355;49.044;8.686;2023-12-28T04:38:57;0.93;;;0.65;;
83423;SDS011;73355;49.044;8.686;2023-12-28T04:41:22;1.40;;;0.90;;
83423;SDS011;73355;49.044;8.686;2023-12-28T04:43:48;1.27;;;0.70;;
83423;SDS011;73355;49.044;8.686;2023-12-28T04:46:13;2.00;;;0.80;;
83423;SDS011;73355;49.044;8.686;2023-12-28T04:48:38;2.37;;;1.00;;
83423;SDS011;73355;49.044;8.686;2023-12-28T04:51:04;1.60;;;0.85;;
83423;SDS011;73355;49.044;8.686;2023-12-28T04:53:29;1.92;;;0.75;;
83423;SDS011;73355;49.044;8.686;2023-12-28T04:55:55;2.50;;;1.05;;
83423;SDS011;73355;49.044;8.686;2023-12-28T04:58:20;2.05;;;1.00;;
83423;SDS011;73355;49.044;8.686;2023-12-28T05:00:46;2.13;;;1.20;;
83423;SDS011;73355;49.044;8.686;2023-12-28T05:03:11;1.17;;;0.80;;
83423;SDS011;73355;49.044;8.686;2023-12-28T05:05:36;1.07;;;0.60;;
83423;SDS011;73355;49.044;8.686;2023-12-28T05:08:02;1.57;;;0.70;;
83423;SDS011;73355;49.044;8.686;2023-12-28T05:10:27;2.40;;;0.63;;
83423;SDS011;73355;49.044;8.686;2023-12-28T05:12:52;1.60;;;0.80;;
83423;SDS011;73355;49.044;8.686;2023-12-28T05:15:18;2.45;;;0.70;;
83423;SDS011;73355;49.044;8.686;2023-12-28T05:17:44;1.33;;;0.80;;
83423;SDS011;73355;49.044;8.686;2023-12-28T05:20:10;1.48;;;0.80;;
83423;SDS011;73355;49.044;8.686;2023-12-28T05:22:35;1.63;;;0.65;;
83423;SDS011;73355;49.044;8.686;2023-12-28T05:25:01;2.33;;;0.90;;
83423;SDS011;73355;49.044;8.686;2023-12-28T05:27:26;6.17;;;1.40;;
83423;SDS011;73355;49.044;8.686;2023-12-28T05:29:51;2.20;;;1.00;;
83423;SDS011;73355;49.044;8.686;2023-12-28T05:32:17;1.88;;;0.85;;
83423;SDS011;73355;49.044;8.686;2023-12-28T05:34:42;1.10;;;0.70;;
83423;SDS011;73355;49.044;8.686;2023-12-28T05:37:08;1.15;;;0.60;;
83423;SDS011;73355;49.044;8.686;2023-12-28T05:39:33;2.30;;;1.10;;
83423;SDS011;73355;49.044;8.686;2023-12-28T05:41:58;2.10;;;1.00;;
83423;SDS011;73355;49.044;8.686;2023-12-28T05:44:23;1.63;;;0.80;;
83423;SDS011;73355;49.044;8.686;2023-12-28T05:46:49;1.53;;;0.93;;
83423;SDS011;73355;49.044;8.686;2023-12-28T05:49:14;3.78;;;1.10;;
83423;SDS011;73355;49.044;8.686;2023-12-28T05:51:40;1.53;;;0.80;;
83423;SDS011;73355;49.044;8.686;2023-12-28T05:54:06;2.55;;;1.15;;
83423;SDS011;73355;49.044;8.686;2023-12-28T05:56:32;1.60;;;0.80;;
83423;SDS011;73355;49.044;8.686;2023-12-28T05:58:57;1.63;;;0.85;;
83423;SDS011;73355;49.044;8.686;2023-12-28T06:01:22;2.23;;;1.07;;
83423;SDS011;73355;49.044;8.686;2023-12-28T06:03:47;1.27;;;0.90;;
83423;SDS011;73355;49.044;8.686;2023-12-28T06:08:39;1.42;;;0.90;;
83423;SDS011;73355;49.044;8.686;2023-12-28T06:11:05;1.83;;;0.90;;
83423;SDS011;73355;49.044;8.686;2023-12-28T06:13:30;3.13;;;0.80;;
83423;SDS011;73355;49.044;8.686;2023-12-28T06:15:55;2.30;;;1.07;;
83423;SDS011;73355;49.044;8.686;2023-12-28T06:18:20;2.92;;;1.00;;
83423;SDS011;73355;49.044;8.686;2023-12-28T06:20:46;1.52;;;0.82;;
83423;SDS011;73355;49.044;8.686;2023-12-28T06:23:12;1.85;;;0.77;;
83423;SDS011;73355;49.044;8.686;2023-12-28T06:25:37;2.97;;;1.20;;
83423;SDS011;73355;49.044;8.686;2023-12-28T06:28:02;1.87;;;1.27;;
83423;SDS011;73355;49.044;8.686;2023-12-28T06:30:28;2.58;;;1.02;;
83423;SDS011;73355;49.044;8.686;2023-12-28T06:32:54;2.25;;;1.00;;
83423;SDS011;73355;49.044;8.686;2023-12-28T06:35:19;2.60;;;1.13;;
83423;SDS011;73355;49.044;8.686;2023-12-28T06:37:45;2.08;;;0.95;;
83423;SDS011;73355;49.044;8.686;2023-12-28T06:40:10;2.20;;;1.10;;
83423;SDS011;73355;49.044;8.686;2023-12-28T06:42:36;2.00;;;1.10;;
83423;SDS011;73355;49.044;8.686;2023-12-28T06:45:01;2.47;;;0.90;;
83423;SDS011;73355;49.044;8.686;2023-12-28T06:47:27;2.90;;;1.17;;
83423;SDS011;73355;49.044;8.686;2023-12-28T06:49:52;2.35;;;1.20;;
83423;SDS011;73355;49.044;8.686;2023-12-28T06:52:18;1.80;;;1.03;;
83423;SDS011;73355;49.044;8.686;2023-12-28T06:54:43;2.10;;;0.97;;
83423;SDS011;73355;49.044;8.686;2023-12-28T06:57:08;3.13;;;1.17;;
83423;SDS011;73355;49.044;8.686;2023-12-28T06:59:33;2.83;;;1.10;;
83423;SDS011;73355;49.044;8.686;2023-12-28T07:01:59;3.03;;;1.40;;
83423;SDS011;73355;49.044;8.686;2023-12-28T07:04:24;2.75;;;1.70;;
83423;SDS011;73355;49.044;8.686;2023-12-28T07:06:51;3.55;;;1.45;;
83423;SDS011;73355;49.044;8.686;2023-12-28T07:09:17;3.00;;;1.33;;
83423;SDS011;73355;49.044;8.686;2023-12-28T07:11:42;3.37;;;1.50;;
83423;SDS011;73355;49.044;8.686;2023-12-28T07:14:07;3.43;;;1.50;;
83423;SDS011;73355;49.044;8.686;2023-12-28T07:16:32;5.13;;;1.77;;
83423;SDS011;73355;49.044;8.686;2023-12-28T07:18:58;3.35;;;1.50;;
83423;SDS011;73355;49.044;8.686;2023-12-28T07:21:23;3.72;;;1.83;;
83423;SDS011;73355;49.044;8.686;2023-12-28T07:23:48;3.90;;;2.00;;
83423;SDS011;73355;49.044;8.686;2023-12-28T07:26:14;4.05;;;1.90;;
83423;SDS011;73355;49.044;8.686;2023-12-28T07:31:08;3.97;;;2.90;;
83423;SDS011;73355;49.044;8.686;2023-12-28T07:33:33;3.25;;;1.95;;
83423;SDS011;73355;49.044;8.686;2023-12-28T07:35:59;4.00;;;2.07;;
83423;SDS011;73355;49.044;8.686;2023-12-28T07:38:27;3.38;;;1.90;;
83423;SDS011;73355;49.044;8.686;2023-12-28T07:40:52;3.30;;;1.30;;
83423;SDS011;73355;49.044;8.686;2023-12-28T07:43:18;2.80;;;1.10;;
83423;SDS011;73355;49.044;8.686;2023-12-28T07:45:43;1.75;;;1.10;;
83423;SDS011;73355;49.044;8.686;2023-12-28T07:48:08;3.90;;;1.30;;
83423;SDS011;73355;49.044;8.686;2023-12-28T07:50:34;3.58;;;1.33;;
83423;SDS011;73355;49.044;8.686;2023-12-28T07:53:00;3.55;;;1.48;;
83423;SDS011;73355;49.044;8.686;2023-12-28T07:55:25;3.40;;;1.50;;
83423;SDS011;73355;49.044;8.686;2023-12-28T07:57:51;4.25;;;1.52;;
83423;SDS011;73355;49.044;8.686;2023-12-28T08:00:16;3.97;;;1.90;;
83423;SDS011;73355;49.044;8.686;2023-12-28T08:02:41;3.10;;;1.60;;
83423;SDS011;73355;49.044;8.686;2023-12-28T08:05:07;3.03;;;1.63;;
83423;SDS011;73355;49.044;8.686;2023-12-28T08:07:32;2.25;;;1.30;;
83423;SDS011;73355;49.044;8.686;2023-12-28T08:09:58;2.65;;;1.23;;
83423;SDS011;73355;49.044;8.686;2023-12-28T08:12:23;3.15;;;1.55;;
83423;SDS011;73355;49.044;8.686;2023-12-28T08:14:52;3.03;;;1.63;;
83423;SDS011;73355;49.044;8.686;2023-12-28T08:17:17;3.30;;;1.85;;
83423;SDS011;73355;49.044;8.686;2023-12-28T08:19:43;2.77;;;1.57;;
83423;SDS011;73355;49.044;8.686;2023-12-28T08:22:08;2.43;;;1.77;;
83423;SDS011;73355;49.044;8.686;2023-12-28T08:24:33;3.65;;;1.70;;
83423;SDS011;73355;49.044;8.686;2023-12-28T08:29:25;7.00;;;2.10;;
83423;SDS011;73355;49.044;8.686;2023-12-28T08:31:51;6.13;;;2.42;;
83423;SDS011;73355;49.044;8.686;2023-12-28T08:34:17;4.30;;;2.20;;
83423;SDS011;73355;49.044;8.686;2023-12-28T08:36:42;4.40;;;2.27;;
83423;SDS011;73355;49.044;8.686;2023-12-28T08:39:07;3.80;;;1.93;;
83423;SDS011;73355;49.044;8.686;2023-12-28T08:41:33;3.80;;;2.17;;
83423;SDS011;73355;49.044;8.686;2023-12-28T08:43:58;4.22;;;2.15;;
83423;SDS011;73355;49.044;8.686;2023-12-28T08:46:24;4.82;;;1.92;;
83423;SDS011;73355;49.044;8.686;2023-12-28T08:48:50;6.38;;;2.30;;
83423;SDS011;73355;49.044;8.686;2023-12-28T08:51:15;6.47;;;2.65;;
83423;SDS011;73355;49.044;8.686;2023-12-28T08:53:41;4.72;;;2.60;;
83423;SDS011;73355;49.044;8.686;2023-12-28T08:56:13;5.60;;;2.30;;
83423;SDS011;73355;49.044;8.686;2023-12-28T08:58:43;4.47;;;1.92;;
83423;SDS011;73355;49.044;8.686;2023-12-28T09:01:15;4.95;;;2.00;;
83423;SDS011;73355;49.044;8.686;2023-12-28T09:03:44;3.83;;;2.00;;
83423;SDS011;73355;49.044;8.686;2023-12-28T09:06:10;4.10;;;2.30;;
83423;SDS011;73355;49.044;8.686;2023-12-28T09:08:35;3.28;;;1.52;;
83423;SDS011;73355;49.044;8.686;2023-12-28T09:11:00;2.83;;;1.40;;
83423;SDS011;73355;49.044;8.686;2023-12-28T09:13:26;2.55;;;1.10;;
83423;SDS011;73355;49.044;8.686;2023-12-28T09:15:51;2.30;;;1.20;;
83423;SDS011;73355;49.044;8.686;2023-12-28T09:18:16;2.53;;;1.37;;
83423;SDS011;73355;49.044;8.686;2023-12-28T09:20:42;2.37;;;1.20;;
83423;SDS011;73355;49.044;8.686;2023-12-28T09:23:08;2.83;;;1.40;;
83423;SDS011;73355;49.044;8.686;2023-12-28T09:25:34;2.83;;;1.25;;
83423;SDS011;73355;49.044;8.686;2023-12-28T09:28:00;3.07;;;1.47;;
83423;SDS011;73355;49.044;8.686;2023-12-28T09:30:25;2.37;;;1.33;;
83423;SDS011;73355;49.044;8.686;2023-12-28T09:32:50;3.13;;;1.23;;
83423;SDS011;73355;49.044;8.686;2023-12-28T09:35:15;3.63;;;1.20;;
83423;SDS011;73355;49.044;8.686;2023-12-28T09:37:41;2.50;;;1.47;;
83423;SDS011;73355;49.044;8.686;2023-12-28T09:40:06;2.97;;;1.20;;
83423;SDS011;73355;49.044;8.686;2023-12-28T09:45:03;3.33;;;1.60;;
83423;SDS011;73355;49.044;8.686;2023-12-28T09:47:29;2.97;;;1.42;;
83423;SDS011;73355;49.044;8.686;2023-12-28T09:49:57;3.15;;;1.38;;
83423;SDS011;73355;49.044;8.686;2023-12-28T09:52:23;3.60;;;1.30;;
83423;SDS011;73355;49.044;8.686;2023-12-28T09:54:48;4.38;;;1.50;;
83423;SDS011;73355;49.044;8.686;2023-12-28T09:57:13;4.37;;;1.93;;
83423;SDS011;73355;49.044;8.686;2023-12-28T09:59:39;2.15;;;1.05;;
83423;SDS011;73355;49.044;8.686;2023-12-28T10:02:05;3.13;;;1.40;;
83423;SDS011;73355;49.044;8.686;2023-12-28T10:04:32;2.75;;;1.50;;
83423;SDS011;73355;49.044;8.686;2023-12-28T10:06:57;4.43;;;1.77;;
83423;SDS011;73355;49.044;8.686;2023-12-28T10:09:23;3.30;;;1.40;;
83423;SDS011;73355;49.044;8.686;2023-12-28T10:11:51;2.00;;;1.45;;
83423;SDS011;73355;49.044;8.686;2023-12-28T10:14:17;2.30;;;1.10;;
83423;SDS011;73355;49.044;8.686;2023-12-28T10:16:45;2.88;;;1.30;;
83423;SDS011;73355;49.044;8.686;2023-12-28T10:19:10;2.27;;;1.20;;
83423;SDS011;73355;49.044;8.686;2023-12-28T10:21:35;2.60;;;1.80;;
83423;SDS011;73355;49.044;8.686;2023-12-28T10:24:03;3.05;;;1.58;;
83423;SDS011;73355;49.044;8.686;2023-12-28T10:26:29;2.90;;;1.55;;
83423;SDS011;73355;49.044;8.686;2023-12-28T10:29:00;3.20;;;1.67;;
83423;SDS011;73355;49.044;8.686;2023-12-28T10:31:28;2.92;;;1.70;;
83423;SDS011;73355;49.044;8.686;2023-12-28T10:33:53;3.40;;;1.37;;
83423;SDS011;73355;49.044;8.686;2023-12-28T10:36:18;2.47;;;1.17;;
83423;SDS011;73355;49.044;8.686;2023-12-28T10:38:46;4.07;;;1.63;;
83423;SDS011;73355;49.044;8.686;2023-12-28T10:41:15;2.58;;;1.63;;
83423;SDS011;73355;49.044;8.686;2023-12-28T10:44:02;3.28;;;1.50;;
83423;SDS011;73355;49.044;8.686;2023-12-28T10:46:30;3.20;;;1.90;;
83423;SDS011;73355;49.044;8.686;2023-12-28T10:49:05;3.78;;;1.88;;
83423;SDS011;73355;49.044;8.686;2023-12-28T10:51:34;2.97;;;1.73;;
83423;SDS011;73355;49.044;8.686;2023-12-28T10:54:18;5.05;;;2.00;;
83423;SDS011;73355;49.044;8.686;2023-12-28T10:56:46;4.70;;;2.30;;
83423;SDS011;73355;49.044;8.686;2023-12-28T10:59:26;2.65;;;1.80;;
83423;SDS011;73355;49.044;8.686;2023-12-28T11:02:01;3.65;;;1.85;;
83423;SDS011;73355;49.044;8.686;2023-12-28T11:07:13;2.35;;;1.08;;
83423;SDS011;73355;49.044;8.686;2023-12-28T11:09:42;3.72;;;1.50;;
83423;SDS011;73355;49.044;8.686;2023-12-28T11:12:08;3.25;;;1.55;;
83423;SDS011;73355;49.044;8.686;2023-12-28T11:14:35;2.50;;;1.60;;
83423;SDS011;73355;49.044;8.686;2023-12-28T11:17:04;3.63;;;1.50;;
83423;SDS011;73355;49.044;8.686;2023-12-28T11:19:29;3.00;;;1.63;;
83423;SDS011;73355;49.044;8.686;2023-12-28T11:21:56;2.85;;;1.88;;
83423;SDS011;73355;49.044;8.686;2023-12-28T11:24:24;2.88;;;1.38;;
83423;SDS011;73355;49.044;8.686;2023-12-28T11:26:52;2.50;;;1.35;;
83423;SDS011;73355;49.044;8.686;2023-12-28T11:29:19;5.57;;;1.70;;
83423;SDS011;73355;49.044;8.686;2023-12-28T11:31:45;3.47;;;1.40;;
83423;SDS011;73355;49.044;8.686;2023-12-28T11:34:16;3.75;;;1.33;;
83423;SDS011;73355;49.044;8.686;2023-12-28T11:36:46;4.40;;;1.67;;
83423;SDS011;73355;49.044;8.686;2023-12-28T11:39:18;2.35;;;1.17;;
83423;SDS011;73355;49.044;8.686;2023-12-28T11:41:51;2.33;;;1.35;;
83423;SDS011;73355;49.044;8.686;2023-12-28T11:44:26;3.80;;;1.20;;
83423;SDS011;73355;49.044;8.686;2023-12-28T11:46:51;2.95;;;1.27;;
83423;SDS011;73355;49.044;8.686;2023-12-28T11:49:17;1.67;;;0.98;;
83423;SDS011;73355;49.044;8.686;2023-12-28T11:51:53;2.03;;;0.85;;
83423;SDS011;73355;49.044;8.686;2023-12-28T11:54:20;2.33;;;0.95;;
83423;SDS011;73355;49.044;8.686;2023-12-28T11:56:45;2.43;;;1.10;;
83423;SDS011;73355;49.044;8.686;2023-12-28T11:59:10;3.07;;;1.10;;
83423;SDS011;73355;49.044;8.686;2023-12-28T12:01:36;1.65;;;0.82;;
83423;SDS011;73355;49.044;8.686;2023-12-28T12:04:01;1.70;;;1.00;;
83423;SDS011;73355;49.044;8.686;2023-12-28T12:06:26;2.30;;;1.40;;
83423;SDS011;73355;49.044;8.686;2023-12-28T12:08:52;2.63;;;1.40;;
83423;SDS011;73355;49.044;8.686;2023-12-28T12:11:17;2.20;;;0.95;;
83423;SDS011;73355;49.044;8.686;2023-12-28T12:13:43;3.67;;;1.63;;
83423;SDS011;73355;49.044;8.686;2023-12-28T12:16:08;3.25;;;1.30;;
83423;SDS011;73355;49.044;8.686;2023-12-28T12:18:34;3.35;;;1.90;;
83423;SDS011;73355;49.044;8.686;2023-12-28T12:21:00;4.15;;;1.98;;
83423;SDS011;73355;49.044;8.686;2023-12-28T12:25:51;2.47;;;1.53;;
83423;SDS011;73355;49.044;8.686;2023-12-28T12:28:17;2.97;;;1.40;;
83423;SDS011;73355;49.044;8.686;2023-12-28T12:30:55;2.60;;;1.42;;
83423;SDS011;73355;49.044;8.686;2023-12-28T12:33:21;2.65;;;1.30;;
83423;SDS011;73355;49.044;8.686;2023-12-28T12:35:46;2.25;;;1.30;;
83423;SDS011;73355;49.044;8.686;2023-12-28T12:38:12;1.92;;;1.20;;
83423;SDS011;73355;49.044;8.686;2023-12-28T12:40:40;2.55;;;1.30;;
83423;SDS011;73355;49.044;8.686;2023-12-28T12:43:06;6.13;;;2.90;;
83423;SDS011;73355;49.044;8.686;2023-12-28T12:45:34;5.15;;;2.60;;
83423;SDS011;73355;49.044;8.686;2023-12-28T12:48:04;6.93;;;2.75;;
83423;SDS011;73355;49.044;8.686;2023-12-28T12:50:33;4.78;;;1.80;;
83423;SDS011;73355;49.044;8.686;2023-12-28T12:52:59;3.35;;;1.55;;
83423;SDS011;73355;49.044;8.686;2023-12-28T12:55:25;3.80;;;2.13;;
83423;SDS011;73355;49.044;8.686;2023-12-28T12:57:51;2.53;;;1.48;;
83423;SDS011;73355;49.044;8.686;2023-12-28T13:00:20;2.15;;;1.20;;
83423;SDS011;73355;49.044;8.686;2023-12-28T13:02:46;2.80;;;1.38;;
83423;SDS011;73355;49.044;8.686;2023-12-28T13:05:11;4.43;;;1.77;;
83423;SDS011;73355;49.044;8.686;2023-12-28T13:07:36;2.80;;;1.57;;
83423;SDS011;73355;49.044;8.686;2023-12-28T13:10:02;2.35;;;1.40;;
83423;SDS011;73355;49.044;8.686;2023-12-28T13:12:27;3.97;;;2.00;;
83423;SDS011;73355;49.044;8.686;2023-12-28T13:14:53;1.25;;;0.93;;
83423;SDS011;73355;49.044;8.686;2023-12-28T13:17:18;1.87;;;1.30;;
83423;SDS011;73355;49.044;8.686;2023-12-28T13:19:43;2.03;;;1.27;;
83423;SDS011;73355;49.044;8.686;2023-12-28T13:22:09;3.87;;;1.67;;
83423;SDS011;73355;49.044;8.686;2023-12-28T13:24:37;2.93;;;1.53;;
83423;SDS011;73355;49.044;8.686;2023-12-28T13:27:02;2.53;;;1.30;;
83423;SDS011;73355;49.044;8.686;2023-12-28T13:29:28;3.92;;;1.50;;
83423;SDS011;73355;49.044;8.686;2023-12-28T13:31:54;3.25;;;1.55;;
83423;SDS011;73355;49.044;8.686;2023-12-28T13:34:20;3.88;;;1.65;;
83423;SDS011;73355;49.044;8.686;2023-12-28T13:36:45;2.47;;;1.30;;
83423;SDS011;73355;49.044;8.686;2023-12-28T13:39:11;2.58;;;1.40;;
83423;SDS011;73355;49.044;8.686;2023-12-28T13:41:39;2.45;;;1.20;;
83423;SDS011;73355;49.044;8.686;2023-12-28T13:44:07;1.95;;;1.10;;
83423;SDS011;73355;49.044;8.686;2023-12-28T13:46:37;3.65;;;1.13;;
83423;SDS011;73355;49.044;8.686;2023-12-28T13:49:03;2.50;;;1.20;;
83423;SDS011;73355;49.044;8.686;2023-12-28T13:51:29;2.60;;;1.48;;
83423;SDS011;73355;49.044;8.686;2023-12-28T13:53:55;2.63;;;1.23;;
83423;SDS011;73355;49.044;8.686;2023-12-28T13:56:20;2.92;;;1.70;;
83423;SDS011;73355;49.044;8.686;2023-12-28T13:58:46;3.77;;;1.60;;
83423;SDS011;73355;49.044;8.686;2023-12-28T14:01:11;3.63;;;1.70;;
83423;SDS011;73355;49.044;8.686;2023-12-28T14:03:37;3.45;;;2.30;;
83423;SDS011;73355;49.044;8.686;2023-12-28T14:06:02;3.20;;;2.07;;
83423;SDS011;73355;49.044;8.686;2023-12-28T14:08:27;7.63;;;3.38;;
83423;SDS011;73355;49.044;8.686;2023-12-28T14:10:53;4.00;;;1.90;;
83423;SDS011;73355;49.044;8.686;2023-12-28T14:13:18;3.60;;;1.53;;
83423;SDS011;73355;49.044;8.686;2023-12-28T14:15:44;1.80;;;1.13;;
83423;SDS011;73355;49.044;8.686;2023-12-28T14:18:10;2.60;;;1.35;;
83423;SDS011;73355;49.044;8.686;2023-12-28T14:20:35;4.68;;;2.50;;
83423;SDS011;73355;49.044;8.686;2023-12-28T14:23:00;3.33;;;1.70;;
83423;SDS011;73355;49.044;8.686;2023-12-28T14:25:26;2.45;;;1.58;;
83423;SDS011;73355;49.044;8.686;2023-12-28T14:27:52;2.70;;;1.45;;
83423;SDS011;73355;49.044;8.686;2023-12-28T14:30:18;2.83;;;1.63;;
83423;SDS011;73355;49.044;8.686;2023-12-28T14:32:44;2.92;;;1.52;;
83423;SDS011;73355;49.044;8.686;2023-12-28T14:35:10;2.65;;;1.65;;
83423;SDS011;73355;49.044;8.686;2023-12-28T14:37:36;2.85;;;1.80;;
83423;SDS011;73355;49.044;8.686;2023-12-28T14:40:02;3.17;;;1.45;;
83423;SDS011;73355;49.044;8.686;2023-12-28T14:42:31;2.58;;;1.30;;
83423;SDS011;73355;49.044;8.686;2023-12-28T14:44:57;2.72;;;1.40;;
83423;SDS011;73355;49.044;8.686;2023-12-28T14:47:23;2.10;;;1.40;;
83423;SDS011;73355;49.044;8.686;2023-12-28T14:49:48;2.70;;;1.60;;
83423;SDS011;73355;49.044;8.686;2023-12-28T14:52:13;4.68;;;1.73;;
83423;SDS011;73355;49.044;8.686;2023-12-28T14:54:39;3.10;;;1.45;;
83423;SDS011;73355;49.044;8.686;2023-12-28T14:57:04;3.30;;;1.73;;
83423;SDS011;73355;49.044;8.686;2023-12-28T14:59:29;3.20;;;2.10;;
83423;SDS011;73355;49.044;8.686;2023-12-28T15:01:54;3.70;;;2.20;;